Tuesday, October 17, 2017, 2:52 PM EDT
Back to Local

KPTW, Pottstown Limerick Airport

Location: Royersford, PA, United States Lat: 40.233
Local Time: 2:52 PM EDT (18:52 GMT) Lon: -75.55
Time Zone: US/Eastern Elev: 291 ft

Show me the last for .
Show Decoded

2017-10-17 13:54 METAR KPTW 171754Z AUTO VRB05KT 10SM CLR 13/01 A3032 RMK AO2 SLP265 T01330011
                 10133 20022 58021 =
2017-10-17 12:54 METAR KPTW 171654Z AUTO VRB05KT 10SM CLR 12/02 A3034 RMK AO2 SLP273 T01170017 =
2017-10-17 11:54 METAR KPTW 171554Z AUTO VRB04KT 10SM CLR 11/02 A3037 RMK AO2 SLP281 T01060017 =
2017-10-17 10:54 METAR KPTW 171454Z AUTO 32004KT 10SM CLR 09/02 A3038 RMK AO2 SLP286 T00890017
                 50007 =
2017-10-17 09:54 METAR KPTW 171354Z AUTO VRB04KT 10SM CLR 08/01 A3039 RMK AO2 SLP290 T00830011 =
2017-10-17 08:54 METAR KPTW 171254Z AUTO VRB03KT 9SM CLR 06/02 A3038 RMK AO2 SLP288 T00560022 =
2017-10-17 07:54 METAR KPTW 171154Z AUTO 00000KT 9SM CLR 02/01 A3036 RMK AO2 SLP280 T00220011
                 10050 20000 51018 =
2017-10-17 06:54 METAR KPTW 171054Z AUTO 00000KT 10SM CLR 02/00 A3035 RMK AO2 SLP277 T00170000 =
2017-10-17 05:54 METAR KPTW 170954Z AUTO 00000KT 10SM CLR 02/01 A3033 RMK AO2 SLP271 T00170011 =
2017-10-17 04:54 METAR KPTW 170854Z AUTO 00000KT 10SM CLR 02/01 A3031 RMK AO2 SLP262 T00170011
                 53008 =
2017-10-17 03:54 METAR KPTW 170754Z AUTO 00000KT 10SM CLR 03/01 A3029 RMK AO2 SLP257 T00280006 =
2017-10-17 02:54 METAR KPTW 170654Z AUTO 00000KT 10SM CLR 04/01 A3029 RMK AO2 SLP255 T00440011 =
2017-10-17 01:54 METAR KPTW 170554Z AUTO 35004KT 10SM CLR 05/01 A3028 RMK AO2 SLP253 T00500006
                 10089 20050 51010 =
2017-10-17 00:54 METAR KPTW 170454Z AUTO 01005KT 10SM CLR 06/01 A3028 RMK AO2 SLP251 T00560011
                 401830056 =
2017-10-16 23:54 METAR KPTW 170354Z AUTO 02005KT 10SM CLR 07/01 A3027 RMK AO2 SLP248 T00670011 =
2017-10-16 22:54 METAR KPTW 170254Z AUTO 35004KT 10SM CLR 08/01 A3025 RMK AO2 SLP243 T00780011
                 51028 =
2017-10-16 21:54 METAR KPTW 170154Z AUTO 01005KT 10SM CLR 08/02 A3023 RMK AO2 SLP235 T00830017 =
2017-10-16 20:54 METAR KPTW 170054Z AUTO 01004KT 10SM CLR 08/02 A3020 RMK AO2 SLP224 T00830022 =
2017-10-16 18:54 METAR KPTW 162254Z AUTO 00000KT 10SM CLR 11/02 A3015 RMK AO2 SLP206 T01060017 =
2017-10-16 17:54 METAR KPTW 162154Z AUTO 34007KT 9SM CLR 13/02 A3013 RMK AO2 SLP200 T01280022 =
2017-10-16 16:54 METAR KPTW 162054Z AUTO 32010G19KT 10SM FEW049 14/02 A3011 RMK AO2 SLP194
                 T01390017 53010 =
2017-10-16 15:54 METAR KPTW 161954Z AUTO 32008G18KT 10SM CLR 14/03 A3010 RMK AO2 SLP189 T01390033
                 =

Support USWX by starting your Amazon purchase here.